Time,TemperatureF,DewpointF,PressureIn,WindDirection,WindDirectionDegrees,WindSpeedMPH,WindSpeedGustMPH,Humidity,HourlyPrecipIn,Conditions,Clouds,dailyrainin,SoftwareType,DateUTC
2017-03-24 00:01:00,50.7,48.7,30.15,North,350,0.0,0.0,93,0.00,RA,,0.00,WeatherDisplay:10.37,2017-03-23 23:01:00,
2017-03-24 00:06:00,50.7,48.7,30.15,North,355,0.0,0.0,93,0.00,RA,,0.00,WeatherDisplay:10.37,2017-03-23 23:06:00,
2017-03-24 00:11:00,50.7,48.7,30.15,North,355,5.0,5.0,93,0.00,CLR,,0.00,WeatherDisplay:10.37,2017-03-23 23:11:00,
2017-03-24 00:16:00,50.7,48.7,30.15,North,351,5.8,5.8,93,0.00,CLR,,0.00,WeatherDisplay:10.37,2017-03-23 23:16:00,
2017-03-24 00:21:00,50.7,48.7,30.15,North,350,0.0,0.0,93,0.00,CLR,,0.00,WeatherDisplay:10.37,2017-03-23 23:21:00,
2017-03-24 00:26:00,50.7,48.7,30.15,North,350,0.0,0.0,93,0.00,CLR,,0.00,WeatherDisplay:10.37,2017-03-23 23:26:00,
2017-03-24 00:31:00,50.7,48.7,30.16,North,350,0.0,0.0,93,0.00,CLR,,0.00,WeatherDisplay:10.37,2017-03-23 23:31:00,
2017-03-24 00:33:00,50.7,48.7,30.16,North,350,0.0,0.0,93,0.00,CLR,,0.00,WeatherDisplay:10.37,2017-03-23 23:33:00,
2017-03-24 00:38:00,50.8,48.8,30.16,North,355,4.0,4.0,93,0.00,CLR,,0.00,WeatherDisplay:10.37,2017-03-23 23:38:00,
2017-03-24 00:43:00,50.8,48.8,30.15,NNW,348,6.9,6.9,93,0.00,CLR,,0.00,WeatherDisplay:10.37,2017-03-23 23:43:00,
2017-03-24 00:48:00,50.7,48.7,30.16,North,355,6.9,0.0,93,0.00,CLR,,0.00,WeatherDisplay:10.37,2017-03-23 23:48:00,
2017-03-24 00:53:00,50.7,48.7,30.15,North,355,6.9,6.9,93,0.00,CLR,,0.00,WeatherDisplay:10.37,2017-03-23 23:53:00,
2017-03-24 00:58:00,50.7,48.7,30.15,North,5,4.6,4.6,93,0.00,CLR,,0.00,WeatherDisplay:10.37,2017-03-23 23:58:00,
2017-03-24 01:03:00,50.6,48.7,30.15,North,5,0.0,0.0,93,0.00,OVC,,0.00,WeatherDisplay:10.37,2017-03-24 00:03:00,
2017-03-24 01:08:00,50.7,48.7,30.16,North,360,0.0,0.0,93,0.00,OVC,,0.00,WeatherDisplay:10.37,2017-03-24 00:08:00,
2017-03-24 01:13:00,50.6,48.7,30.16,NNW,334,2.0,3.5,93,0.00,OVC,,0.00,WeatherDisplay:10.37,2017-03-24 00:13:00,
2017-03-24 01:18:00,50.6,48.7,30.16,NNW,331,3.5,3.5,93,0.00,OVC,,0.00,WeatherDisplay:10.37,2017-03-24 00:18:00,
2017-03-24 01:28:00,50.5,48.3,30.16,North,5,0.0,0.0,92,0.00,OVC,,0.00,WeatherDisplay:10.37,2017-03-24 00:28:00,
2017-03-24 01:29:00,50.5,48.3,30.16,North,360,0.0,0.0,92,0.00,OVC,,0.00,WeatherDisplay:10.37,2017-03-24 00:29:00,
2017-03-24 01:34:00,50.4,48.2,30.16,North,5,1.2,0.0,92,0.00,OVC,,0.00,WeatherDisplay:10.37,2017-03-24 00:34:00,
2017-03-24 01:39:00,50.3,48.1,30.16,NNW,345,5.0,5.0,92,0.00,OVC,,0.00,WeatherDisplay:10.37,2017-03-24 00:39:00,
2017-03-24 01:44:00,50.3,48.1,30.16,North,350,0.0,0.0,92,0.00,OVC,,0.00,WeatherDisplay:10.37,2017-03-24 00:44:00,
2017-03-24 01:54:00,50.2,48.0,30.17,NNW,348,0.0,0.0,92,0.00,OVC,,0.00,WeatherDisplay:10.37,2017-03-24 00:54:00,
2017-03-24 01:59:00,50.1,47.9,30.17,North,350,0.0,0.0,92,0.00,OVC,,0.00,WeatherDisplay:10.37,2017-03-24 00:59:00,
2017-03-24 02:04:00,50.1,47.9,30.17,NNW,344,4.6,4.6,92,0.00,OVC,,0.00,WeatherDisplay:10.37,2017-03-24 01:04:00,
2017-03-24 02:09:00,50.0,47.8,30.17,NNW,346,3.5,0.0,92,0.00,OVC,,0.00,WeatherDisplay:10.37,2017-03-24 01:09:00,
2017-03-24 02:14:00,50.0,47.8,30.17,NNW,346,0.0,0.0,92,0.00,OVC,,0.00,WeatherDisplay:10.37,2017-03-24 01:14:00,
2017-03-24 02:19:00,50.0,47.8,30.17,NNW,344,0.0,0.0,92,0.00,OVC,,0.00,WeatherDisplay:10.37,2017-03-24 01:19:00,
2017-03-24 02:24:00,49.9,47.7,30.17,NNW,344,0.0,0.0,92,0.00,OVC,,0.00,WeatherDisplay:10.37,2017-03-24 01:24:00,
2017-03-24 02:29:00,49.9,47.7,30.17,NNW,342,0.0,0.0,92,0.00,OVC,,0.00,WeatherDisplay:10.37,2017-03-24 01:29:00,
2017-03-24 02:34:00,49.9,47.7,30.17,NNW,342,3.5,0.0,92,0.00,OVC,,0.00,WeatherDisplay:10.37,2017-03-24 01:34:00,
2017-03-24 02:36:00,49.9,47.7,30.17,NNW,342,0.0,0.0,92,0.00,OVC,,0.00,WeatherDisplay:10.37,2017-03-24 01:36:00,
2017-03-24 02:39:00,49.9,47.7,30.17,NNW,342,0.0,0.0,92,0.00,OVC,,0.00,WeatherDisplay:10.37,2017-03-24 01:39:00,
2017-03-24 02:44:00,49.9,47.7,30.17,NNW,342,0.0,0.0,92,0.00,OVC,,0.00,WeatherDisplay:10.37,2017-03-24 01:44:00,
2017-03-24 02:55:00,49.9,47.7,30.17,NNW,342,0.0,0.0,92,0.00,OVC,,0.00,WeatherDisplay:10.37,2017-03-24 01:55:00,
2017-03-24 03:00:00,49.7,47.2,30.18,WNW,286,4.6,4.6,91,0.00,OVC,,0.00,WeatherDisplay:10.37,2017-03-24 02:00:00,
2017-03-24 03:05:00,49.7,47.2,30.18,WNW,286,4.6,4.6,91,0.00,OVC,,0.00,WeatherDisplay:10.37,2017-03-24 02:05:00,
2017-03-24 03:10:00,49.3,46.8,30.18,WNW,287,4.6,4.6,91,0.00,OVC,,0.00,WeatherDisplay:10.37,2017-03-24 02:10:00,
2017-03-24 03:13:00,49.2,46.7,30.18,WNW,290,3.5,3.5,91,0.00,OVC,,0.00,WeatherDisplay:10.37,2017-03-24 02:13:00,
2017-03-24 03:15:00,49.2,46.7,30.18,WNW,290,3.5,3.5,91,0.00,OVC,,0.00,WeatherDisplay:10.37,2017-03-24 02:15:00,
2017-03-24 03:20:00,49.2,46.7,30.18,WNW,290,3.5,3.5,91,0.00,OVC,,0.00,WeatherDisplay:10.37,2017-03-24 02:20:00,
2017-03-24 03:29:00,49.2,46.7,30.18,WNW,290,3.5,3.5,91,0.00,OVC,,0.00,WeatherDisplay:10.37,2017-03-24 02:29:00,
2017-03-24 03:30:00,49.0,46.5,30.18,WNW,296,5.0,5.0,91,0.00,OVC,,0.00,WeatherDisplay:10.37,2017-03-24 02:30:00,
2017-03-24 03:38:00,49.0,46.5,30.18,WNW,296,5.0,5.0,91,0.00,OVC,,0.00,WeatherDisplay:10.37,2017-03-24 02:38:00,
2017-03-24 03:59:00,49.0,46.8,30.18,North,5,4.6,4.6,92,0.00,OVC,,0.00,WeatherDisplay:10.37,2017-03-24 02:59:00,
2017-03-24 04:04:00,49.0,46.8,30.18,North,5,4.6,4.6,92,0.00,OVC,,0.00,WeatherDisplay:10.37,2017-03-24 03:04:00,
2017-03-24 04:08:00,48.8,46.6,30.18,NNE,15,0.0,0.0,92,0.03,RA,,0.03,WeatherDisplay:10.37,2017-03-24 03:08:00,
2017-03-24 04:13:00,48.8,46.6,30.18,NNE,15,0.0,0.0,92,0.05,RA,,0.05,WeatherDisplay:10.37,2017-03-24 03:13:00,
2017-03-24 04:14:00,48.8,46.6,30.18,North,355,0.0,0.0,92,0.05,RA,,0.06,WeatherDisplay:10.37,2017-03-24 03:14:00,
2017-03-24 04:15:00,48.8,46.6,30.18,North,6,0.0,5.0,92,0.01,RA,,0.06,WeatherDisplay:10.37,2017-03-24 03:15:00,
2017-03-24 04:18:00,48.8,46.6,30.18,North,355,0.0,0.0,92,0.05,RA,,0.06,WeatherDisplay:10.37,2017-03-24 03:18:00,
2017-03-24 04:23:00,48.8,46.6,30.18,North,355,0.0,0.0,92,0.05,RA,,0.06,WeatherDisplay:10.37,2017-03-24 03:23:00,
2017-03-24 04:28:00,48.6,46.4,30.18,NNW,339,2.0,2.0,92,0.06,RA,,0.06,WeatherDisplay:10.37,2017-03-24 03:28:00,
2017-03-24 04:33:00,48.5,46.3,30.18,North,9,0.0,0.3,92,0.06,RA,,0.06,WeatherDisplay:10.37,2017-03-24 03:33:00,
2017-03-24 04:38:00,48.5,46.3,30.18,NNW,338,3.5,0.0,92,0.06,RA,,0.06,WeatherDisplay:10.37,2017-03-24 03:38:00,
2017-03-24 04:43:00,48.5,46.3,30.18,NNE,15,3.5,3.5,92,0.06,RA,,0.06,WeatherDisplay:10.37,2017-03-24 03:43:00,
2017-03-24 04:48:00,48.5,46.3,30.18,NNE,15,3.5,3.5,92,0.06,RA,,0.06,WeatherDisplay:10.37,2017-03-24 03:48:00,
2017-03-24 05:04:00,48.5,46.3,30.18,NNE,15,2.3,2.3,92,0.06,RA,,0.06,WeatherDisplay:10.37,2017-03-24 04:04:00,
2017-03-24 05:09:00,48.5,46.3,30.18,NNE,15,2.3,2.3,92,0.06,RA,,0.06,WeatherDisplay:10.37,2017-03-24 04:09:00,
2017-03-24 05:14:00,48.5,46.3,30.18,NNE,15,2.3,2.3,92,0.06,RA,,0.06,WeatherDisplay:10.37,2017-03-24 04:14:00,
2017-03-24 05:19:00,48.5,46.3,30.18,NNE,15,2.3,2.3,92,0.06,RA,,0.06,WeatherDisplay:10.37,2017-03-24 04:19:00,
2017-03-24 05:24:00,48.8,46.9,30.19,NW,313,5.0,5.0,93,0.06,RA,,0.06,WeatherDisplay:10.37,2017-03-24 04:24:00,
2017-03-24 05:29:00,48.9,47.0,30.19,North,350,4.6,4.6,93,0.06,OVC,,0.06,WeatherDisplay:10.37,2017-03-24 04:29:00,
2017-03-24 05:34:00,49.0,47.1,30.19,NW,325,6.0,6.0,93,0.06,OVC,,0.06,WeatherDisplay:10.37,2017-03-24 04:34:00,
2017-03-24 05:39:00,49.0,47.1,30.18,North,355,8.1,8.1,93,0.06,OVC,,0.06,WeatherDisplay:10.37,2017-03-24 04:39:00,
2017-03-24 05:44:00,49.1,47.2,30.19,North,355,5.8,5.8,93,0.06,OVC,,0.06,WeatherDisplay:10.37,2017-03-24 04:44:00,
2017-03-24 05:49:00,49.1,47.2,30.19,NNW,342,7.0,7.0,93,0.06,OVC,,0.06,WeatherDisplay:10.37,2017-03-24 04:49:00,
2017-03-24 05:54:00,49.1,47.2,30.18,North,355,6.9,6.9,93,0.06,OVC,,0.06,WeatherDisplay:10.37,2017-03-24 04:54:00,
2017-03-24 05:59:00,49.2,47.3,30.19,North,360,4.0,4.0,93,0.06,OVC,,0.06,WeatherDisplay:10.37,2017-03-24 04:59:00,
2017-03-24 06:04:00,49.2,47.3,30.19,NNW,345,6.9,6.9,93,0.06,OVC,,0.06,WeatherDisplay:10.37,2017-03-24 05:04:00,
2017-03-24 06:09:00,49.2,47.3,30.19,North,360,5.0,5.0,93,0.06,OVC,,0.06,WeatherDisplay:10.37,2017-03-24 05:09:00,
2017-03-24 06:14:00,49.2,47.3,30.19,North,5,6.9,6.9,93,0.06,OVC,,0.06,WeatherDisplay:10.37,2017-03-24 05:14:00,
2017-03-24 06:19:00,49.2,47.3,30.19,NNW,340,3.5,3.5,93,0.06,OVC,,0.06,WeatherDisplay:10.37,2017-03-24 05:19:00,
2017-03-24 06:24:00,49.2,47.3,30.19,North,355,4.6,4.6,93,0.06,OVC,,0.06,WeatherDisplay:10.37,2017-03-24 05:24:00,
2017-03-24 06:29:00,49.2,47.3,30.19,North,355,4.6,4.6,93,0.06,OVC,,0.06,WeatherDisplay:10.37,2017-03-24 05:29:00,
2017-03-24 06:34:00,49.2,47.3,30.19,North,10,3.5,3.5,93,0.06,OVC,,0.06,WeatherDisplay:10.37,2017-03-24 05:34:00,
2017-03-24 06:39:00,49.2,47.3,30.19,North,10,3.5,3.5,93,0.06,OVC,,0.06,WeatherDisplay:10.37,2017-03-24 05:39:00,
2017-03-24 06:44:00,49.2,47.3,30.19,North,10,3.5,3.5,93,0.06,OVC,,0.06,WeatherDisplay:10.37,2017-03-24 05:44:00,
2017-03-24 06:49:00,49.3,47.4,30.20,North,360,3.5,3.5,93,0.03,OVC,,0.06,WeatherDisplay:10.37,2017-03-24 05:49:00,
2017-03-24 06:54:00,49.4,47.5,30.20,NNW,328,4.0,4.0,93,0.03,OVC,,0.06,WeatherDisplay:10.37,2017-03-24 05:54:00,
2017-03-24 06:59:00,49.5,47.3,30.21,NNE,12,4.6,4.6,92,0.03,OVC,,0.06,WeatherDisplay:10.37,2017-03-24 05:59:00,
2017-03-24 07:04:00,49.5,47.3,30.21,North,350,5.8,5.8,92,0.02,OVC,,0.06,WeatherDisplay:10.37,2017-03-24 06:04:00,
2017-03-24 07:09:00,49.6,47.4,30.21,NNW,345,5.8,5.8,92,0.02,OVC,,0.06,WeatherDisplay:10.37,2017-03-24 06:09:00,
2017-03-24 07:14:00,49.6,47.4,30.21,NNW,346,9.0,9.0,92,0.02,OVC,,0.06,WeatherDisplay:10.37,2017-03-24 06:14:00,
2017-03-24 07:19:00,49.6,47.4,30.21,NNW,346,9.0,9.0,92,0.02,OVC,,0.06,WeatherDisplay:10.37,2017-03-24 06:19:00,
2017-03-24 07:24:00,49.7,47.5,30.21,North,349,9.2,9.2,92,0.01,OVC,,0.06,WeatherDisplay:10.37,2017-03-24 06:24:00,
2017-03-24 07:29:00,49.8,47.6,30.21,North,360,9.2,9.2,92,0.00,OVC,,0.06,WeatherDisplay:10.37,2017-03-24 06:29:00,
2017-03-24 07:34:00,49.8,47.6,30.21,North,360,9.2,9.2,92,0.00,OVC,,0.06,WeatherDisplay:10.37,2017-03-24 06:34:00,
2017-03-24 07:40:00,49.8,47.6,30.21,North,360,6.0,6.0,92,0.00,OVC,,0.06,WeatherDisplay:10.37,2017-03-24 06:40:00,
2017-03-24 07:45:00,50.0,47.5,30.22,NNW,338,5.8,5.8,91,0.00,OVC,,0.06,WeatherDisplay:10.37,2017-03-24 06:45:00,
2017-03-24 07:50:00,50.1,47.6,30.22,North,355,5.8,5.8,91,0.00,OVC,,0.06,WeatherDisplay:10.37,2017-03-24 06:50:00,
2017-03-24 07:55:00,50.1,47.6,30.22,North,355,5.8,5.8,91,0.00,OVC,,0.06,WeatherDisplay:10.37,2017-03-24 06:55:00,
2017-03-24 08:00:00,50.2,47.7,30.22,North,5,8.1,8.1,91,0.00,OVC,,0.06,WeatherDisplay:10.37,2017-03-24 07:00:00,
2017-03-24 08:05:00,50.3,47.8,30.22,North,355,8.1,8.1,91,0.00,OVC,,0.06,WeatherDisplay:10.37,2017-03-24 07:05:00,
2017-03-24 08:10:00,50.3,47.8,30.22,North,355,8.1,8.1,91,0.00,OVC,,0.06,WeatherDisplay:10.37,2017-03-24 07:10:00,
2017-03-24 08:16:00,50.3,47.8,30.22,North,355,8.1,8.1,91,0.00,OVC,,0.06,WeatherDisplay:10.37,2017-03-24 07:16:00,
2017-03-24 08:17:00,50.6,48.1,30.22,North,360,8.1,0.0,91,0.00,OVC,,0.06,WeatherDisplay:10.37,2017-03-24 07:17:00,
2017-03-24 08:21:00,50.6,48.1,30.22,North,360,8.1,0.0,91,0.00,OVC,,0.06,WeatherDisplay:10.37,2017-03-24 07:21:00,
2017-03-24 08:26:00,50.6,48.1,30.22,North,360,8.1,0.0,91,0.00,OVC,,0.06,WeatherDisplay:10.37,2017-03-24 07:26:00,
2017-03-24 08:31:00,50.6,48.1,30.22,North,360,0.0,0.0,91,0.00,OVC,,0.06,WeatherDisplay:10.37,2017-03-24 07:31:00,
2017-03-24 08:36:00,50.6,48.1,30.22,North,360,0.0,0.0,91,0.00,OVC,,0.06,WeatherDisplay:10.37,2017-03-24 07:36:00,
2017-03-24 08:38:00,50.9,48.1,30.23,North,9,5.0,5.0,90,0.00,OVC,,0.06,WeatherDisplay:10.37,2017-03-24 07:38:00,
2017-03-24 08:41:00,50.9,48.1,30.23,North,9,5.0,5.0,90,0.00,OVC,,0.06,WeatherDisplay:10.37,2017-03-24 07:41:00,
2017-03-24 08:46:00,50.9,48.1,30.23,North,9,5.0,5.0,90,0.00,OVC,,0.06,WeatherDisplay:10.37,2017-03-24 07:46:00,
2017-03-24 08:58:00,50.9,48.1,30.23,North,9,4.6,4.6,90,0.00,OVC,,0.06,WeatherDisplay:10.37,2017-03-24 07:58:00,
2017-03-24 09:03:00,50.9,48.1,30.23,North,9,4.6,4.6,90,0.00,OVC,,0.06,WeatherDisplay:10.37,2017-03-24 08:03:00,
2017-03-24 09:08:00,50.9,48.1,30.23,North,9,4.6,4.6,90,0.00,OVC,,0.06,WeatherDisplay:10.37,2017-03-24 08:08:00,
2017-03-24 09:13:00,51.4,48.6,30.25,North,355,4.6,4.6,90,0.00,CLR,,0.06,WeatherDisplay:10.37,2017-03-24 08:13:00,
2017-03-24 09:17:00,51.4,48.6,30.25,North,355,4.6,4.6,90,0.00,CLR,,0.06,WeatherDisplay:10.37,2017-03-24 08:17:00,
2017-03-24 09:18:00,51.4,48.6,30.25,North,355,4.6,4.6,90,0.00,CLR,,0.06,WeatherDisplay:10.37,2017-03-24 08:18:00,
2017-03-24 09:23:00,51.4,48.6,30.25,North,355,4.6,4.6,90,0.00,CLR,,0.06,WeatherDisplay:10.37,2017-03-24 08:23:00,
2017-03-24 09:29:00,51.5,48.7,30.25,North,355,4.6,4.6,90,0.00,CLR,,0.06,WeatherDisplay:10.37,2017-03-24 08:29:00,
2017-03-24 09:34:00,51.5,48.7,30.25,North,355,4.6,4.6,90,0.00,CLR,,0.06,WeatherDisplay:10.37,2017-03-24 08:34:00,
2017-03-24 09:39:00,51.7,48.6,30.26,North,349,4.6,4.6,89,0.00,CLR,,0.06,WeatherDisplay:10.37,2017-03-24 08:39:00,
2017-03-24 09:43:00,51.8,48.7,30.26,North,355,4.6,4.6,89,0.00,CLR,,0.06,WeatherDisplay:10.37,2017-03-24 08:43:00,
2017-03-24 09:44:00,51.8,48.7,30.26,North,355,4.6,4.6,89,0.00,CLR,,0.06,WeatherDisplay:10.37,2017-03-24 08:44:00,
2017-03-24 09:49:00,51.8,48.7,30.26,North,355,4.6,4.6,89,0.00,CLR,,0.06,WeatherDisplay:10.37,2017-03-24 08:49:00,
2017-03-24 09:58:00,51.8,48.7,30.26,North,355,4.6,4.6,89,0.00,CLR,,0.06,WeatherDisplay:10.37,2017-03-24 08:58:00,
2017-03-24 10:03:00,51.8,48.7,30.26,North,355,4.6,4.6,89,0.00,CLR,,0.06,WeatherDisplay:10.37,2017-03-24 09:03:00,
2017-03-24 10:08:00,51.8,48.7,30.26,North,355,4.6,4.6,89,0.00,CLR,,0.06,WeatherDisplay:10.37,2017-03-24 09:08:00,
2017-03-24 10:13:00,51.8,48.7,30.26,North,355,4.6,4.6,89,0.00,CLR,,0.06,WeatherDisplay:10.37,2017-03-24 09:13:00,
2017-03-24 10:15:00,52.3,48.9,30.27,NNW,331,4.6,4.6,88,0.00,CLR,,0.06,WeatherDisplay:10.37,2017-03-24 09:15:00,
2017-03-24 10:18:00,52.3,48.9,30.27,NNW,331,4.6,4.6,88,0.00,CLR,,0.06,WeatherDisplay:10.37,2017-03-24 09:18:00,
2017-03-24 10:23:00,52.3,48.9,30.27,NNW,331,4.6,4.6,88,0.00,CLR,,0.06,WeatherDisplay:10.37,2017-03-24 09:23:00,
2017-03-24 10:28:00,52.3,48.9,30.27,NNW,330,0.0,0.0,88,0.00,CLR,,0.06,WeatherDisplay:10.37,2017-03-24 09:28:00,
2017-03-24 10:33:00,52.3,48.9,30.27,NNW,330,0.0,0.0,88,0.00,CLR,,0.06,WeatherDisplay:10.37,2017-03-24 09:33:00,
2017-03-24 10:38:00,52.8,49.0,30.27,NNW,331,0.0,0.0,87,0.00,CLR,,0.06,WeatherDisplay:10.37,2017-03-24 09:38:00,
2017-03-24 10:43:00,52.8,49.0,30.27,NNW,331,0.0,0.0,87,0.00,CLR,,0.06,WeatherDisplay:10.37,2017-03-24 09:43:00,
2017-03-24 10:45:00,52.8,49.1,30.27,NNW,341,0.0,9.0,87,0.00,CLR,,0.06,WeatherDisplay:10.37,2017-03-24 09:45:00,
2017-03-24 10:48:00,52.8,49.0,30.27,NNW,331,0.0,0.0,87,0.00,CLR,,0.06,WeatherDisplay:10.37,2017-03-24 09:48:00,
2017-03-24 11:04:00,52.8,49.0,30.27,NNW,331,0.0,0.0,87,0.00,CLR,,0.06,WeatherDisplay:10.37,2017-03-24 10:04:00,
2017-03-24 11:05:00,53.3,49.5,30.28,NNW,330,0.0,0.0,87,0.00,CLR,,0.06,WeatherDisplay:10.37,2017-03-24 10:05:00,
2017-03-24 11:10:00,53.3,49.5,30.28,NNW,330,0.0,0.0,87,0.00,CLR,,0.06,WeatherDisplay:10.37,2017-03-24 10:10:00,
2017-03-24 11:15:00,53.3,49.5,30.28,NNW,330,0.0,0.0,87,0.00,CLR,,0.06,WeatherDisplay:10.37,2017-03-24 10:15:00,
2017-03-24 11:20:00,53.5,49.7,30.28,NNW,331,0.0,0.0,87,0.00,CLR,,0.06,WeatherDisplay:10.37,2017-03-24 10:20:00,
2017-03-24 11:25:00,53.7,49.9,30.28,NNW,331,0.0,0.0,87,0.00,CLR,,0.06,WeatherDisplay:10.37,2017-03-24 10:25:00,
2017-03-24 11:30:00,53.7,50.2,30.29,NNW,331,0.0,0.0,88,0.00,CLR,,0.06,WeatherDisplay:10.37,2017-03-24 10:30:00,
2017-03-24 11:35:00,53.7,49.9,30.29,NNW,330,0.0,0.0,87,0.00,CLR,,0.06,WeatherDisplay:10.37,2017-03-24 10:35:00,
2017-03-24 11:40:00,53.7,49.9,30.29,NNW,330,0.0,0.0,87,0.00,CLR,,0.06,WeatherDisplay:10.37,2017-03-24 10:40:00,
2017-03-24 11:45:00,53.6,50.1,30.29,NNW,330,0.0,0.0,88,0.00,CLR,,0.06,WeatherDisplay:10.37,2017-03-24 10:45:00,
2017-03-24 11:49:00,53.5,50.0,30.29,NNW,329,0.0,0.0,88,0.00,CLR,,0.06,WeatherDisplay:10.37,2017-03-24 10:49:00,
2017-03-24 11:50:00,53.5,50.0,30.29,NNW,329,0.0,0.0,88,0.00,CLR,,0.06,WeatherDisplay:10.37,2017-03-24 10:50:00,
2017-03-24 11:55:00,53.5,50.0,30.29,NNW,329,0.0,0.0,88,0.00,CLR,,0.06,WeatherDisplay:10.37,2017-03-24 10:55:00,
2017-03-24 12:00:00,53.5,50.0,30.29,NNW,329,0.0,0.0,88,0.00,CLR,,0.06,WeatherDisplay:10.37,2017-03-24 11:00:00,
2017-03-24 12:05:00,53.5,50.0,30.29,NNW,329,0.0,0.0,88,0.00,CLR,,0.06,WeatherDisplay:10.37,2017-03-24 11:05:00,
2017-03-24 12:13:00,53.5,50.0,30.29,NNW,329,0.0,0.0,88,0.00,CLR,,0.06,WeatherDisplay:10.37,2017-03-24 11:13:00,
2017-03-24 12:18:00,53.5,50.0,30.29,NNW,329,0.0,0.0,88,0.00,CLR,,0.06,WeatherDisplay:10.37,2017-03-24 11:18:00,
2017-03-24 12:29:00,53.5,50.0,30.29,NNW,329,0.0,0.0,88,0.00,CLR,,0.06,WeatherDisplay:10.37,2017-03-24 11:29:00,
2017-03-24 12:30:00,53.5,50.0,30.29,NNW,330,0.0,0.0,88,0.02,RA,,0.08,WeatherDisplay:10.37,2017-03-24 11:30:00,
2017-03-24 12:34:00,53.2,50.3,30.29,NNW,330,0.0,0.0,90,0.00,CLR,,0.08,WeatherDisplay:10.37,2017-03-24 11:34:00,
2017-03-24 12:39:00,53.2,50.3,30.29,NNW,330,0.0,0.0,90,0.00,CLR,,0.08,WeatherDisplay:10.37,2017-03-24 11:39:00,
2017-03-24 12:44:00,53.4,50.8,30.29,NNW,345,4.0,4.0,91,0.02,RA,,0.08,WeatherDisplay:10.37,2017-03-24 11:44:00,
2017-03-24 12:49:00,53.4,50.8,30.29,NNE,15,4.6,4.6,91,0.02,RA,,0.09,WeatherDisplay:10.37,2017-03-24 11:49:00,
2017-03-24 12:54:00,53.5,50.9,30.29,NNW,345,0.0,0.0,91,0.02,RA,,0.09,WeatherDisplay:10.37,2017-03-24 11:54:00,
2017-03-24 12:59:00,53.5,50.9,30.29,NNW,347,1.0,1.0,91,0.02,RA,,0.09,WeatherDisplay:10.37,2017-03-24 11:59:00,
2017-03-24 13:04:00,53.4,50.8,30.29,North,355,10.4,10.4,91,0.03,RA,,0.09,WeatherDisplay:10.37,2017-03-24 12:04:00,
2017-03-24 13:09:00,53.2,50.6,30.27,NNW,336,12.0,12.0,91,0.04,RA,,0.10,WeatherDisplay:10.37,2017-03-24 12:09:00,
2017-03-24 13:14:00,53.1,50.8,30.26,North,5,10.4,10.4,92,0.04,RA,,0.10,WeatherDisplay:10.37,2017-03-24 12:14:00,
2017-03-24 13:19:00,53.1,50.8,30.26,NNW,344,12.7,12.7,92,0.04,RA,,0.10,WeatherDisplay:10.37,2017-03-24 12:19:00,
2017-03-24 13:24:00,53.1,50.8,30.26,NNW,344,12.7,12.7,92,0.04,RA,,0.10,WeatherDisplay:10.37,2017-03-24 12:24:00,
2017-03-24 13:29:00,53.0,50.7,30.26,North,355,12.7,12.7,92,0.04,RA,,0.10,WeatherDisplay:10.37,2017-03-24 12:29:00,
2017-03-24 13:34:00,53.0,50.7,30.26,North,355,12.7,12.7,92,0.04,RA,,0.10,WeatherDisplay:10.37,2017-03-24 12:34:00,
2017-03-24 13:35:00,53.0,50.7,30.26,North,355,12.7,12.7,92,0.04,RA,,0.10,WeatherDisplay:10.37,2017-03-24 12:35:00,
2017-03-24 13:40:00,53.1,51.1,30.28,NNW,338,12.7,12.7,93,0.04,RA,,0.10,WeatherDisplay:10.37,2017-03-24 12:40:00,
2017-03-24 13:50:00,53.3,51.3,30.28,North,355,12.7,12.7,93,0.04,RA,,0.10,WeatherDisplay:10.37,2017-03-24 12:50:00,
2017-03-24 13:55:00,53.3,51.3,30.28,North,360,4.6,0.0,93,0.04,RA,,0.10,WeatherDisplay:10.37,2017-03-24 12:55:00,
2017-03-24 14:00:00,53.3,51.3,30.28,North,360,4.6,0.0,93,0.04,RA,,0.10,WeatherDisplay:10.37,2017-03-24 13:00:00,
2017-03-24 14:05:00,53.4,51.4,30.28,North,360,0.0,0.0,93,0.04,RA,,0.10,WeatherDisplay:10.37,2017-03-24 13:05:00,
2017-03-24 14:10:00,53.5,51.2,30.28,NNW,329,2.3,2.3,92,0.04,OVC,,0.10,WeatherDisplay:10.37,2017-03-24 13:10:00,
2017-03-24 14:15:00,53.3,51.0,30.28,North,355,5.8,5.8,92,0.05,RA,,0.11,WeatherDisplay:10.37,2017-03-24 13:15:00,
2017-03-24 14:20:00,53.4,51.1,30.27,North,349,5.8,5.8,92,0.05,RA,,0.11,WeatherDisplay:10.37,2017-03-24 13:20:00,
2017-03-24 14:25:00,53.6,51.3,30.27,NNW,344,3.0,3.0,92,0.05,RA,,0.11,WeatherDisplay:10.37,2017-03-24 13:25:00,
2017-03-24 14:30:00,53.7,51.4,30.27,NW,311,3.5,3.5,92,0.05,RA,,0.11,WeatherDisplay:10.37,2017-03-24 13:30:00,
2017-03-24 14:35:00,53.8,51.5,30.27,NNW,340,6.0,6.0,92,0.05,RA,,0.11,WeatherDisplay:10.37,2017-03-24 13:35:00,
2017-03-24 14:40:00,53.9,51.6,30.26,NNE,14,5.8,5.8,92,0.05,RA,,0.11,WeatherDisplay:10.37,2017-03-24 13:40:00,
2017-03-24 14:45:00,54.1,51.8,30.26,WNW,302,5.8,5.8,92,0.05,RA,,0.11,WeatherDisplay:10.37,2017-03-24 13:45:00,
2017-03-24 14:50:00,54.2,51.9,30.26,NNW,331,5.8,5.8,92,0.05,RA,,0.11,WeatherDisplay:10.37,2017-03-24 13:50:00,
2017-03-24 14:55:00,54.5,51.9,30.27,NW,314,4.6,4.6,91,0.05,RA,,0.11,WeatherDisplay:10.37,2017-03-24 13:55:00,
2017-03-24 15:00:00,54.7,52.1,30.26,NW,305,4.0,4.0,91,0.05,RA,,0.11,WeatherDisplay:10.37,2017-03-24 14:00:00,
2017-03-24 15:05:00,54.7,52.1,30.26,NW,305,4.6,4.6,91,0.05,RA,,0.11,WeatherDisplay:10.37,2017-03-24 14:05:00,
2017-03-24 15:10:00,54.9,52.0,30.27,North,349,8.1,8.1,90,0.05,OVC,,0.11,WeatherDisplay:10.37,2017-03-24 14:10:00,
2017-03-24 15:15:00,54.9,52.0,30.26,North,5,5.8,0.0,90,0.05,OVC,,0.11,WeatherDisplay:10.37,2017-03-24 14:15:00,
2017-03-24 15:20:00,54.9,52.0,30.26,North,5,5.8,0.0,90,0.05,OVC,,0.11,WeatherDisplay:10.37,2017-03-24 14:20:00,
2017-03-24 15:25:00,55.1,52.2,30.26,North,355,1.2,1.2,90,0.05,OVC,,0.11,WeatherDisplay:10.37,2017-03-24 14:25:00,
2017-03-24 15:30:00,55.1,52.2,30.26,North,355,3.5,3.5,90,0.05,OVC,,0.11,WeatherDisplay:10.37,2017-03-24 14:30:00,
2017-03-24 15:35:00,55.7,52.8,30.26,NNW,342,3.5,3.5,90,0.05,OVC,,0.11,WeatherDisplay:10.37,2017-03-24 14:35:00,
2017-03-24 15:40:00,55.7,52.5,30.26,NNW,337,6.9,6.9,89,0.05,OVC,,0.11,WeatherDisplay:10.37,2017-03-24 14:40:00,
2017-03-24 15:45:00,55.6,52.1,30.26,North,360,10.4,10.4,88,0.05,OVC,,0.11,WeatherDisplay:10.37,2017-03-24 14:45:00,
2017-03-24 15:50:00,55.6,52.1,30.26,NNW,336,5.8,5.8,88,0.05,OVC,,0.11,WeatherDisplay:10.37,2017-03-24 14:50:00,
2017-03-24 15:55:00,55.7,52.2,30.26,NNE,13,2.3,0.0,88,0.05,OVC,,0.11,WeatherDisplay:10.37,2017-03-24 14:55:00,
2017-03-24 16:00:00,55.7,52.2,30.26,North,355,0.0,0.0,88,0.03,OVC,,0.11,WeatherDisplay:10.37,2017-03-24 15:00:00,
2017-03-24 16:05:00,55.8,52.3,30.26,NNW,337,2.3,0.0,88,0.02,OVC,,0.11,WeatherDisplay:10.37,2017-03-24 15:05:00,
2017-03-24 16:10:00,55.8,52.0,30.26,North,355,2.0,2.0,87,0.01,OVC,,0.11,WeatherDisplay:10.37,2017-03-24 15:10:00,
2017-03-24 16:15:00,55.8,52.0,30.26,NW,305,3.0,3.0,87,0.01,OVC,,0.11,WeatherDisplay:10.37,2017-03-24 15:15:00,
2017-03-24 16:25:00,55.9,52.1,30.26,North,360,3.5,0.0,87,0.00,OVC,,0.11,WeatherDisplay:10.37,2017-03-24 15:25:00,
2017-03-24 16:30:00,56.0,52.2,30.26,North,10,5.8,5.8,87,0.00,OVC,,0.11,WeatherDisplay:10.37,2017-03-24 15:30:00,
2017-03-24 16:35:00,55.9,51.8,30.25,NNW,338,9.2,9.2,86,0.00,OVC,,0.11,WeatherDisplay:10.37,2017-03-24 15:35:00,
2017-03-24 16:40:00,55.9,52.1,30.25,North,10,3.5,3.5,87,0.00,OVC,,0.11,WeatherDisplay:10.37,2017-03-24 15:40:00,
2017-03-24 16:50:00,55.9,51.8,30.25,NNE,14,7.0,7.0,86,0.00,OVC,,0.11,WeatherDisplay:10.37,2017-03-24 15:50:00,
2017-03-24 16:55:00,55.9,51.8,30.25,NNW,335,7.0,7.0,86,0.00,OVC,,0.11,WeatherDisplay:10.37,2017-03-24 15:55:00,
2017-03-24 17:00:00,55.8,51.4,30.25,North,355,11.0,11.0,85,0.00,OVC,,0.11,WeatherDisplay:10.37,2017-03-24 16:00:00,
2017-03-24 17:05:00,55.7,50.9,30.25,North,350,12.0,12.0,84,0.00,OVC,,0.11,WeatherDisplay:10.37,2017-03-24 16:05:00,
2017-03-24 17:10:00,55.6,50.8,30.24,NNW,327,6.9,6.9,84,0.00,OVC,,0.11,WeatherDisplay:10.37,2017-03-24 16:10:00,
2017-03-24 17:15:00,55.7,50.9,30.24,NNW,342,8.1,0.0,84,0.00,OVC,,0.11,WeatherDisplay:10.37,2017-03-24 16:15:00,
2017-03-24 17:20:00,55.7,50.9,30.24,North,355,4.6,4.6,84,0.00,OVC,,0.11,WeatherDisplay:10.37,2017-03-24 16:20:00,
2017-03-24 17:25:00,55.6,50.8,30.24,NNW,329,8.1,8.1,84,0.00,OVC,,0.11,WeatherDisplay:10.37,2017-03-24 16:25:00,
2017-03-24 17:30:00,55.5,50.7,30.24,NW,315,6.9,6.9,84,0.00,OVC,,0.11,WeatherDisplay:10.37,2017-03-24 16:30:00,
2017-03-24 17:35:00,55.4,50.6,30.24,NW,309,11.5,11.5,84,0.00,OVC,,0.11,WeatherDisplay:10.37,2017-03-24 16:35:00,
2017-03-24 17:40:00,55.4,50.6,30.24,NW,319,6.9,6.9,84,0.00,OVC,,0.11,WeatherDisplay:10.37,2017-03-24 16:40:00,
2017-03-24 17:50:00,55.4,50.3,30.24,NNW,338,3.5,4.1,83,0.00,OVC,,0.11,WeatherDisplay:10.37,2017-03-24 16:50:00,
2017-03-24 17:55:00,55.4,50.3,30.24,North,360,6.0,6.0,83,0.00,OVC,,0.11,WeatherDisplay:10.37,2017-03-24 16:55:00,
2017-03-24 18:00:00,55.4,50.0,30.23,NNW,338,8.1,8.1,82,0.00,OVC,,0.11,WeatherDisplay:10.37,2017-03-24 17:00:00,
2017-03-24 18:05:00,55.4,50.0,30.24,NNW,346,10.4,10.4,82,0.00,OVC,,0.11,WeatherDisplay:10.37,2017-03-24 17:05:00,
2017-03-24 18:10:00,55.4,50.0,30.23,NNW,343,10.4,10.4,82,0.00,OVC,,0.11,WeatherDisplay:10.37,2017-03-24 17:10:00,
2017-03-24 18:15:00,55.3,49.9,30.23,North,355,11.5,11.5,82,0.00,OVC,,0.11,WeatherDisplay:10.37,2017-03-24 17:15:00,
2017-03-24 18:20:00,55.3,49.9,30.24,NNW,336,11.5,11.5,82,0.00,OVC,,0.11,WeatherDisplay:10.37,2017-03-24 17:20:00,
2017-03-24 18:25:00,55.3,49.9,30.24,North,360,8.1,8.1,82,0.00,OVC,,0.11,WeatherDisplay:10.37,2017-03-24 17:25:00,
2017-03-24 18:30:00,55.2,49.8,30.24,North,5,6.9,6.9,82,0.00,OVC,,0.11,WeatherDisplay:10.37,2017-03-24 17:30:00,
2017-03-24 18:35:00,55.1,49.7,30.24,NNW,345,5.8,5.8,82,0.00,OVC,,0.11,WeatherDisplay:10.37,2017-03-24 17:35:00,
2017-03-24 18:40:00,55.0,49.9,30.24,NNW,342,3.5,3.5,83,0.00,OVC,,0.11,WeatherDisplay:10.37,2017-03-24 17:40:00,